Time;durP1;ratioP1;P1;durP2;ratioP2;P2;SDS_P1;SDS_P2;PMS_P1;PMS_P2;Temp;Humidity;BMP_temperature;BMP_pressure;BME280_temperature;BME280_humidity;BME280_pressure;Samples;Min_cycle;Max_cycle;Signal;HPM_P1;HPM_P2
2022/07/10 00:00:08;;;;;;;3.90;1.17;;;16.80;99.90;;;;;;5079630;28;20265;-67
2022/07/10 00:02:43;;;;;;;3.53;0.95;;;16.80;99.90;;;;;;5079762;28;20078;-67
2022/07/10 00:05:10;;;;;;;4.38;1.15;;;16.90;99.90;;;;;;5079433;28;20058;-68
2022/07/10 00:07:36;;;;;;;2.85;1.13;;;16.90;99.90;;;;;;5062161;28;20293;-68
2022/07/10 00:10:03;;;;;;;4.53;1.50;;;16.90;99.90;;;;;;5078685;28;20040;-66
2022/07/10 00:12:29;;;;;;;6.40;1.10;;;16.70;99.90;;;;;;5078515;28;20119;-67
2022/07/10 00:14:55;;;;;;;3.22;1.10;;;16.70;99.90;;;;;;5079253;28;20134;-66
2022/07/10 00:17:21;;;;;;;4.93;1.02;;;16.70;99.90;;;;;;5079181;28;20032;-66
2022/07/10 00:19:47;;;;;;;4.72;1.20;;;16.60;99.90;;;;;;5079187;28;20407;-66
2022/07/10 00:22:13;;;;;;;4.95;1.10;;;16.60;99.90;;;;;;5079606;28;20075;-66
2022/07/10 00:24:38;;;;;;;4.55;1.15;;;16.60;99.90;;;;;;5078905;28;20278;-66
2022/07/10 00:27:04;;;;;;;5.20;1.27;;;16.60;99.90;;;;;;5078171;28;20051;-66
2022/07/10 00:29:30;;;;;;;4.95;1.08;;;16.60;99.90;;;;;;5078164;28;20036;-66
2022/07/10 00:31:56;;;;;;;2.20;1.00;;;16.60;99.90;;;;;;5078912;28;20282;-66
2022/07/10 00:34:22;;;;;;;3.38;0.98;;;16.50;99.90;;;;;;5078726;28;20098;-66
2022/07/10 00:36:47;;;;;;;6.00;1.10;;;16.60;99.90;;;;;;5078843;28;20415;-66
2022/07/10 00:39:13;;;;;;;5.65;1.00;;;16.60;99.90;;;;;;5078111;28;20040;-66
2022/07/10 00:41:39;;;;;;;6.70;1.30;;;16.60;99.90;;;;;;5078738;28;20391;-66
2022/07/10 00:44:05;;;;;;;6.15;1.52;;;16.50;99.90;;;;;;5078681;28;20124;-66
2022/07/10 00:46:31;;;;;;;1.92;0.80;;;16.50;99.90;;;;;;5078375;28;20016;-66
2022/07/10 00:48:57;;;;;;;4.68;1.00;;;16.50;99.90;;;;;;5077855;28;20040;-66
2022/07/10 00:51:29;;;;;;;2.70;1.10;;;16.50;99.90;;;;;;5078572;28;20319;-66
2022/07/10 00:53:56;;;;;;;3.95;1.02;;;16.40;99.90;;;;;;5078441;28;20304;-66
2022/07/10 00:56:27;;;;;;;3.42;1.05;;;16.50;99.90;;;;;;5077477;28;20052;-66
2022/07/10 00:58:54;;;;;;;2.13;1.00;;;16.30;99.90;;;;;;5078336;28;20040;-66
2022/07/10 01:01:22;;;;;;;2.08;0.80;;;16.30;99.90;;;;;;5077680;28;20040;-65
2022/07/10 01:03:48;;;;;;;3.40;0.90;;;16.30;99.90;;;;;;5078265;28;20040;-65
2022/07/10 01:06:15;;;;;;;4.32;1.10;;;16.20;99.90;;;;;;5078439;28;20112;-65
2022/07/10 01:08:42;;;;;;;3.13;0.90;;;16.20;99.90;;;;;;5078141;28;20086;-66
2022/07/10 01:11:12;;;;;;;4.05;1.25;;;16.20;99.90;;;;;;5078784;28;20043;-66
2022/07/10 01:13:39;;;;;;;4.38;1.10;;;16.40;99.90;;;;;;5060892;28;20044;-65
2022/07/10 01:16:05;;;;;;;4.95;1.30;;;16.50;99.90;;;;;;5078040;28;20123;-66
2022/07/10 01:18:31;;;;;;;4.68;1.23;;;16.50;99.90;;;;;;5077145;28;20085;-67
2022/07/10 01:20:57;;;;;;;3.13;1.20;;;16.40;99.90;;;;;;5077155;28;20036;-66
2022/07/10 01:23:23;;;;;;;3.22;1.00;;;16.40;99.90;;;;;;5077890;28;20388;-67
2022/07/10 01:25:50;;;;;;;3.25;1.13;;;16.40;99.90;;;;;;5077193;28;20282;-66
2022/07/10 01:28:21;;;;;;;4.05;1.30;;;16.30;99.90;;;;;;5077804;28;20060;-66
2022/07/10 01:30:48;;;;;;;4.45;1.45;;;16.40;99.90;;;;;;5077813;28;20115;-67
2022/07/10 01:33:13;;;;;;;3.88;1.05;;;16.40;99.90;;;;;;5077685;28;20361;-64
2022/07/10 01:35:40;;;;;;;3.50;1.30;;;16.50;99.90;;;;;;5077716;28;20028;-66
2022/07/10 01:38:06;;;;;;;2.65;1.08;;;16.50;99.90;;;;;;5077496;28;20115;-67
2022/07/10 01:40:32;;;;;;;2.90;1.10;;;16.40;99.90;;;;;;5077673;28;20044;-66
2022/07/10 01:42:58;;;;;;;3.85;1.25;;;16.30;99.90;;;;;;5076914;28;20032;-67
2022/07/10 01:45:24;;;;;;;2.75;0.80;;;16.20;99.90;;;;;;5077529;28;20044;-67
2022/07/10 01:47:50;;;;;;;3.30;1.10;;;16.20;99.90;;;;;;5078002;28;20028;-66
2022/07/10 01:50:16;;;;;;;3.70;1.40;;;16.10;99.90;;;;;;5077444;28;20024;-66
2022/07/10 01:52:42;;;;;;;3.22;1.10;;;16.00;99.90;;;;;;5076659;28;20024;-66
2022/07/10 01:55:08;;;;;;;3.17;0.98;;;15.90;99.90;;;;;;5077168;28;20045;-67
2022/07/10 01:57:34;;;;;;;5.35;1.10;;;15.90;99.90;;;;;;5077264;28;20033;-64
2022/07/10 02:00:01;;;;;;;3.25;1.30;;;15.90;99.90;;;;;;5077127;28;20068;-66
2022/07/10 02:02:26;;;;;;;3.00;1.00;;;15.80;99.90;;;;;;5077200;28;20033;-65
2022/07/10 02:04:52;;;;;;;1.80;1.00;;;16.00;99.90;;;;;;5077221;28;20090;-66
2022/07/10 02:07:21;;;;;;;2.83;1.33;;;16.10;99.90;;;;;;5077136;28;20029;-66
2022/07/10 02:09:47;;;;;;;2.85;1.20;;;16.10;99.90;;;;;;5077078;28;20040;-67
2022/07/10 02:12:14;;;;;;;2.70;0.93;;;16.00;99.90;;;;;;5077624;28;20041;-66
2022/07/10 02:14:41;;;;;;;3.63;1.10;;;15.90;99.90;;;;;;5077088;28;20400;-66
2022/07/10 02:17:08;;;;;;;4.85;1.30;;;15.90;99.90;;;;;;5077002;28;20108;-66
2022/07/10 02:19:34;;;;;;;4.57;1.40;;;15.90;99.90;;;;;;5076906;28;20396;-66
2022/07/10 02:22:00;;;;;;;6.18;1.10;;;15.80;99.90;;;;;;5076996;28;20028;-66
2022/07/10 02:24:26;;;;;;;4.30;1.10;;;15.80;99.90;;;;;;5076884;28;20115;-66
2022/07/10 02:26:54;;;;;;;2.95;1.15;;;15.80;99.90;;;;;;5076317;28;20053;-66
2022/07/10 02:29:23;;;;;;;2.47;1.20;;;15.70;99.90;;;;;;5076867;28;20047;-65
2022/07/10 02:31:48;;;;;;;4.68;1.30;;;15.80;99.90;;;;;;5076934;28;20161;-66
2022/07/10 02:34:14;;;;;;;3.88;1.17;;;15.70;99.90;;;;;;5076711;28;20074;-65
2022/07/10 02:36:40;;;;;;;4.45;1.10;;;15.70;99.90;;;;;;5076902;28;20036;-66
2022/07/10 02:39:07;;;;;;;2.85;1.17;;;15.80;99.90;;;;;;5076724;28;20146;-65
2022/07/10 02:41:35;;;;;;;4.57;1.10;;;15.80;99.90;;;;;;5076792;28;20044;-65
2022/07/10 02:44:02;;;;;;;3.42;1.30;;;15.80;99.90;;;;;;5076685;28;20281;-66
2022/07/10 02:46:28;;;;;;;4.43;1.40;;;15.80;99.90;;;;;;5076765;28;20025;-66
2022/07/10 02:48:54;;;;;;;3.17;1.40;;;15.80;99.90;;;;;;5075838;28;20039;-65
2022/07/10 02:51:19;;;;;;;3.90;1.23;;;15.80;99.90;;;;;;5075939;28;20347;-66
2022/07/10 02:53:45;;;;;;;4.68;1.20;;;15.80;99.90;;;;;;5075856;28;20029;-66
2022/07/10 02:56:11;;;;;;;8.38;1.50;;;15.80;99.90;;;;;;5075883;28;20087;-65
2022/07/10 02:58:39;;;;;;;5.15;1.27;;;15.80;99.90;;;;;;5076849;28;20028;-65
2022/07/10 03:01:05;;;;;;;5.25;1.10;;;15.80;99.90;;;;;;5076607;28;20025;-65
2022/07/10 03:03:31;;;;;;;4.90;1.15;;;15.70;99.90;;;;;;5076865;28;20037;-65
2022/07/10 03:05:58;;;;;;;2.13;0.98;;;15.80;99.90;;;;;;5076544;28;20025;-66
2022/07/10 03:08:24;;;;;;;3.25;1.17;;;15.70;99.90;;;;;;5076490;28;20038;-66
2022/07/10 03:10:49;;;;;;;2.80;1.10;;;15.80;99.90;;;;;;5076519;28;20041;-66
2022/07/10 03:13:15;;;;;;;2.00;1.05;;;15.80;99.90;;;;;;5075749;28;20032;-66
2022/07/10 03:15:41;;;;;;;2.95;1.17;;;15.70;99.90;;;;;;5076687;28;20033;-66
2022/07/10 03:18:07;;;;;;;2.97;1.20;;;15.70;99.90;;;;;;5076802;28;20032;-66
2022/07/10 03:20:32;;;;;;;3.60;1.10;;;15.70;99.90;;;;;;5079141;28;20031;-66
2022/07/10 03:22:58;;;;;;;4.70;1.30;;;15.80;99.90;;;;;;5080172;28;20040;-66
2022/07/10 03:25:24;;;;;;;4.68;1.30;;;15.70;99.90;;;;;;5079446;28;20028;-66
2022/07/10 03:27:50;;;;;;;5.47;1.40;;;15.70;99.90;;;;;;5079466;28;20066;-66
2022/07/10 03:30:15;;;;;;;5.72;1.30;;;15.70;99.90;;;;;;5080099;28;20040;-66
2022/07/10 03:32:41;;;;;;;4.65;1.20;;;15.70;99.90;;;;;;5080534;28;20075;-66
2022/07/10 03:35:07;;;;;;;4.32;1.10;;;15.60;99.90;;;;;;5079939;28;20062;-66
2022/07/10 03:37:33;;;;;;;3.03;1.20;;;15.50;99.90;;;;;;5079109;28;20277;-66
2022/07/10 03:39:58;;;;;;;3.60;1.35;;;15.40;99.90;;;;;;5079478;28;20056;-66
2022/07/10 03:42:24;;;;;;;5.05;1.58;;;15.60;99.90;;;;;;5079737;28;20053;-66
2022/07/10 03:44:50;;;;;;;2.85;1.10;;;15.50;99.90;;;;;;5079707;28;20028;-66
2022/07/10 03:47:16;;;;;;;4.65;1.33;;;15.40;99.90;;;;;;5079577;28;20044;-66
2022/07/10 03:49:42;;;;;;;4.60;1.35;;;15.40;99.90;;;;;;5079513;28;20361;-66
2022/07/10 03:52:08;;;;;;;3.25;1.30;;;15.40;99.90;;;;;;5079624;28;20047;-66
2022/07/10 03:54:34;;;;;;;4.88;1.30;;;15.30;99.90;;;;;;5079445;28;20316;-66
2022/07/10 03:59:44;;;;;;;3.00;1.20;;;15.30;99.90;;;;;;5079586;28;20037;-66
2022/07/10 04:02:11;;;;;;;4.40;1.38;;;15.30;99.90;;;;;;5079442;28;20036;-66
2022/07/10 04:04:36;;;;;;;3.60;1.20;;;15.40;99.90;;;;;;5079446;28;20041;-66
2022/07/10 04:07:04;;;;;;;2.75;1.05;;;15.40;99.90;;;;;;5079617;28;20309;-66
2022/07/10 04:09:30;;;;;;;3.70;1.40;;;15.40;99.90;;;;;;5079336;28;20040;-66
2022/07/10 04:11:56;;;;;;;3.58;1.30;;;15.30;99.90;;;;;;5078616;28;20025;-67
2022/07/10 04:14:21;;;;;;;2.88;1.13;;;15.30;99.90;;;;;;5079401;28;20039;-65
2022/07/10 04:16:47;;;;;;;3.55;1.30;;;15.20;99.90;;;;;;5079192;28;20033;-65
2022/07/10 04:19:13;;;;;;;4.40;1.33;;;15.20;99.90;;;;;;5079092;28;20044;-66
2022/07/10 04:21:39;;;;;;;4.40;1.30;;;15.30;99.90;;;;;;5079090;28;20423;-66
2022/07/10 04:24:05;;;;;;;4.03;1.45;;;15.40;99.90;;;;;;5078368;28;20039;-66
2022/07/10 04:26:30;;;;;;;3.53;1.33;;;15.40;99.90;;;;;;5079392;28;20032;-66
2022/07/10 04:28:56;;;;;;;5.32;1.50;;;15.40;99.90;;;;;;5079079;28;20039;-66
2022/07/10 04:31:22;;;;;;;2.90;1.20;;;15.50;99.90;;;;;;5078203;28;20036;-66
2022/07/10 04:33:48;;;;;;;4.68;1.42;;;15.50;99.90;;;;;;5078905;28;20040;-66
2022/07/10 04:36:14;;;;;;;3.35;1.30;;;15.50;99.90;;;;;;5078160;28;20424;-65
2022/07/10 04:38:40;;;;;;;3.85;1.55;;;15.40;99.90;;;;;;5078139;28;20144;-68
2022/07/10 04:41:06;;;;;;;3.30;1.40;;;15.50;99.90;;;;;;5078211;28;20028;-67
2022/07/10 04:43:34;;;;;;;4.28;1.60;;;15.50;99.90;;;;;;5078432;28;20059;-67
2022/07/10 04:46:00;;;;;;;3.25;1.30;;;15.50;99.90;;;;;;5078023;28;20036;-66
2022/07/10 04:48:27;;;;;;;6.20;1.67;;;15.50;99.90;;;;;;5078742;28;20024;-67
2022/07/10 04:50:52;;;;;;;5.55;1.58;;;15.50;99.90;;;;;;5078538;28;20032;-67
2022/07/10 04:53:18;;;;;;;5.57;1.45;;;15.60;99.90;;;;;;5061797;28;20304;-67
2022/07/10 04:55:45;;;;;;;4.95;1.48;;;15.70;99.90;;;;;;5060920;28;20122;-67
2022/07/10 04:58:11;;;;;;;5.65;1.48;;;15.70;99.90;;;;;;5061280;28;20033;-67
2022/07/10 05:00:37;;;;;;;3.15;1.35;;;15.70;99.90;;;;;;5061743;28;20036;-66
2022/07/10 05:03:03;;;;;;;5.00;1.40;;;15.70;99.90;;;;;;5078251;28;20044;-67
2022/07/10 05:05:29;;;;;;;8.23;1.92;;;15.70;99.90;;;;;;5077740;28;20039;-68
2022/07/10 05:07:55;;;;;;;6.95;1.83;;;15.60;99.90;;;;;;5077584;28;20044;-66
2022/07/10 05:10:21;;;;;;;4.40;1.88;;;15.70;99.90;;;;;;5077874;28;20408;-67
2022/07/10 05:12:47;;;;;;;4.10;1.60;;;15.80;99.90;;;;;;5078228;28;20059;-66
2022/07/10 05:15:13;;;;;;;4.45;1.90;;;15.90;99.90;;;;;;5078736;28;20067;-66
2022/07/10 05:17:39;;;;;;;5.43;1.58;;;16.00;99.90;;;;;;5060934;28;20060;-67
2022/07/10 05:20:05;;;;;;;7.43;1.60;;;16.10;99.90;;;;;;5078017;28;20304;-67
2022/07/10 05:22:31;;;;;;;3.63;1.40;;;16.20;99.90;;;;;;5077207;28;20067;-67
2022/07/10 05:24:57;;;;;;;5.45;1.60;;;16.30;99.90;;;;;;5077247;28;20033;-67
2022/07/10 05:27:24;;;;;;;3.92;1.67;;;16.40;99.90;;;;;;5060594;28;20021;-66
2022/07/10 05:29:50;;;;;;;2.90;1.40;;;16.70;99.90;;;;;;5077790;28;20028;-66
2022/07/10 05:32:16;;;;;;;2.78;1.25;;;16.90;99.90;;;;;;5077172;28;20090;-67
2022/07/10 05:34:42;;;;;;;7.25;1.23;;;17.00;99.90;;;;;;5077211;28;20029;-67
2022/07/10 05:37:07;;;;;;;2.60;1.10;;;17.30;99.90;;;;;;5077974;28;20108;-67
2022/07/10 05:39:34;;;;;;;4.43;1.00;;;17.50;99.90;;;;;;5076775;28;20090;-67
2022/07/10 05:42:00;;;;;;;5.05;1.13;;;17.70;99.90;;;;;;5077390;28;20029;-67
2022/07/10 05:44:26;;;;;;;4.38;1.00;;;17.90;99.90;;;;;;5060317;28;20078;-66
2022/07/10 05:46:52;;;;;;;5.88;1.20;;;18.00;99.90;;;;;;5077577;28;20055;-66
2022/07/10 05:49:18;;;;;;;7.07;1.08;;;18.20;99.90;;;;;;5060207;28;20316;-66
2022/07/10 05:51:43;;;;;;;4.10;1.00;;;18.30;99.90;;;;;;5077696;28;20032;-66
2022/07/10 05:54:09;;;;;;;3.88;1.08;;;18.40;99.90;;;;;;5077238;28;20104;-66
2022/07/10 05:56:35;;;;;;;2.17;1.02;;;18.50;99.90;;;;;;5077123;28;20094;-66
2022/07/10 05:59:01;;;;;;;3.08;0.93;;;18.70;99.90;;;;;;5077077;28;20028;-66
2022/07/10 06:01:26;;;;;;;2.35;0.90;;;18.70;99.90;;;;;;5077167;28;20028;-66
2022/07/10 06:03:53;;;;;;;2.85;0.82;;;18.80;99.90;;;;;;5077175;28;20028;-66
2022/07/10 06:06:18;;;;;;;3.20;0.98;;;18.90;99.90;;;;;;5076218;28;20075;-66
2022/07/10 06:08:45;;;;;;;4.45;1.13;;;19.00;99.90;;;;;;5077125;28;20133;-66
2022/07/10 06:11:11;;;;;;;4.50;1.30;;;19.20;99.90;;;;;;5076360;28;20033;-66
2022/07/10 06:13:37;;;;;;;3.55;1.45;;;19.00;99.90;;;;;;5060031;28;20028;-66
2022/07/10 06:16:04;;;;;;;2.90;1.08;;;19.10;99.90;;;;;;5077547;28;20107;-66
2022/07/10 06:18:33;;;;;;;3.67;1.10;;;19.20;99.90;;;;;;5076800;28;20055;-66
2022/07/10 06:20:59;;;;;;;3.70;1.08;;;19.20;99.90;;;;;;5076766;28;20036;-64
2022/07/10 06:23:25;;;;;;;2.85;1.05;;;19.30;99.90;;;;;;5076262;28;20085;-64
2022/07/10 06:25:50;;;;;;;2.38;0.60;;;19.40;99.90;;;;;;5076906;28;20052;-66
2022/07/10 06:28:17;;;;;;;3.85;0.93;;;19.50;99.90;;;;;;5076813;28;20300;-66
2022/07/10 06:30:43;;;;;;;3.47;0.80;;;19.50;99.90;;;;;;5077444;28;20262;-65
2022/07/10 06:33:09;;;;;;;1.90;0.70;;;19.60;99.90;;;;;;5077277;28;20044;-66
2022/07/10 06:35:35;;;;;;;5.25;1.08;;;19.70;99.90;;;;;;5076805;28;20048;-65
2022/07/10 06:38:01;;;;;;;2.83;0.80;;;19.80;99.90;;;;;;5076760;28;20292;-66
2022/07/10 06:40:29;;;;;;;4.15;1.05;;;19.80;99.90;;;;;;5076776;28;20039;-66
2022/07/10 06:42:55;;;;;;;1.90;0.80;;;20.00;99.90;;;;;;5076669;28;20047;-66
2022/07/10 06:45:21;;;;;;;5.22;1.13;;;20.00;99.90;;;;;;5076477;28;20025;-63
2022/07/10 06:47:56;;;;;;;3.28;1.10;;;20.10;99.90;;;;;;5076784;28;20029;-66
2022/07/10 06:50:23;;;;;;;3.00;1.30;;;20.10;99.90;;;;;;5076704;28;20036;-67
2022/07/10 06:52:50;;;;;;;4.15;1.10;;;20.20;99.90;;;;;;5076583;28;20048;-65
2022/07/10 06:55:17;;;;;;;4.22;1.30;;;20.20;99.90;;;;;;5078783;28;20052;-65
2022/07/10 06:57:43;;;;;;;7.35;1.40;;;20.30;99.90;;;;;;5080590;28;20024;-65
2022/07/10 07:00:09;;;;;;;4.18;1.17;;;20.40;99.90;;;;;;5080616;28;20047;-65
2022/07/10 07:02:35;;;;;;;3.28;1.05;;;20.50;99.90;;;;;;5080845;28;20024;-64
2022/07/10 07:05:02;;;;;;;4.18;1.40;;;20.60;99.90;;;;;;5079878;28;20066;-64
2022/07/10 07:07:27;;;;;;;3.88;1.10;;;20.80;99.90;;;;;;5080554;28;20078;-66
2022/07/10 07:09:53;;;;;;;3.75;1.17;;;20.90;99.90;;;;;;5080784;28;20032;-66
2022/07/10 07:12:19;;;;;;;3.90;1.13;;;20.70;99.90;;;;;;5080529;28;20054;-66
2022/07/10 07:14:45;;;;;;;2.08;1.13;;;20.70;99.90;;;;;;5062970;28;20343;-65
2022/07/10 07:17:14;;;;;;;5.00;1.13;;;20.70;99.90;;;;;;5080638;28;20051;-65
2022/07/10 07:25:10;;;;;;;4.13;1.20;;;21.00;99.90;;;;;;5080263;28;20300;-65
2022/07/10 07:27:38;;;;;;;4.28;1.10;;;21.10;99.90;;;;;;5080322;28;20331;-65
2022/07/10 07:30:10;;;;;;;2.25;1.10;;;21.10;99.90;;;;;;5080096;28;20040;-65
2022/07/10 07:32:37;;;;;;;4.68;1.10;;;21.30;99.90;;;;;;5080046;28;20029;-66
2022/07/10 07:35:03;;;;;;;4.55;1.23;;;21.30;99.90;;;;;;5079973;28;20024;-65
2022/07/10 07:37:40;;;;;;;2.58;1.00;;;21.50;99.90;;;;;;5080180;28;20021;-66
2022/07/10 07:40:07;;;;;;;3.10;1.00;;;21.60;99.90;;;;;;5079952;28;20044;-65
2022/07/10 07:42:33;;;;;;;3.75;0.90;;;21.20;99.90;;;;;;5079798;28;20025;-65
2022/07/10 07:44:59;;;;;;;2.70;0.98;;;21.30;99.90;;;;;;5079788;28;20033;-66
2022/07/10 07:47:25;;;;;;;3.03;0.90;;;21.40;99.90;;;;;;5079857;28;20031;-66
2022/07/10 07:49:51;;;;;;;4.43;1.08;;;21.60;99.90;;;;;;5078918;28;20121;-66
2022/07/10 07:52:17;;;;;;;2.58;0.90;;;21.90;99.90;;;;;;5079654;28;20032;-66
2022/07/10 07:54:42;;;;;;;4.03;1.10;;;21.90;99.90;;;;;;5079454;28;20308;-65
2022/07/10 07:57:08;;;;;;;4.32;1.10;;;22.10;99.90;;;;;;5079580;28;20028;-66
2022/07/10 07:59:34;;;;;;;3.88;1.05;;;22.20;99.90;;;;;;5079433;28;20044;-66
2022/07/10 08:02:00;;;;;;;4.53;1.20;;;22.40;99.90;;;;;;5079466;28;20047;-66
2022/07/10 08:04:26;;;;;;;2.88;1.13;;;22.50;99.90;;;;;;5079562;28;20049;-65
2022/07/10 08:06:53;;;;;;;3.22;1.10;;;22.60;99.90;;;;;;5079214;28;20068;-66
2022/07/10 08:09:19;;;;;;;2.75;1.20;;;22.70;99.90;;;;;;5079402;28;20127;-64
2022/07/10 08:11:46;;;;;;;4.97;0.90;;;22.80;99.90;;;;;;5079337;28;20040;-66
2022/07/10 08:14:12;;;;;;;4.05;1.10;;;22.70;99.90;;;;;;5079527;28;20367;-66
2022/07/10 08:16:39;;;;;;;3.08;0.93;;;22.60;99.90;;;;;;5079308;28;20051;-64
2022/07/10 08:19:05;;;;;;;5.97;1.10;;;22.40;99.90;;;;;;5062150;28;20416;-67
2022/07/10 08:21:32;;;;;;;2.55;0.93;;;22.30;99.90;;;;;;5079529;28;20036;-68
2022/07/10 08:23:58;;;;;;;4.15;1.20;;;22.40;99.90;;;;;;5079246;28;20048;-66
2022/07/10 08:26:24;;;;;;;4.95;1.33;;;22.40;99.90;;;;;;5079077;28;20032;-66
2022/07/10 08:28:50;;;;;;;3.22;1.02;;;22.30;99.90;;;;;;5078614;28;20258;-66
2022/07/10 08:31:16;;;;;;;4.30;1.25;;;22.40;99.90;;;;;;5079060;28;20116;-67
2022/07/10 08:33:42;;;;;;;3.70;1.20;;;22.40;99.90;;;;;;5078867;28;20401;-65
2022/07/10 08:36:08;;;;;;;2.88;1.30;;;22.50;99.90;;;;;;5078890;28;20408;-65
2022/07/10 08:38:34;;;;;;;3.55;1.05;;;22.70;99.90;;;;;;5078094;28;20083;-66
2022/07/10 08:41:02;;;;;;;2.45;0.98;;;22.90;99.90;;;;;;5078779;28;20031;-66
2022/07/10 08:43:28;;;;;;;2.90;0.93;;;23.00;99.90;;;;;;5078730;28;20025;-66
2022/07/10 08:45:54;;;;;;;2.40;1.00;;;23.20;99.90;;;;;;5078795;28;20040;-65
2022/07/10 08:48:24;;;;;;;4.60;1.13;;;23.40;99.90;;;;;;5078552;28;20199;-65
2022/07/10 08:50:54;;;;;;;2.90;0.95;;;23.50;99.90;;;;;;5078675;28;20039;-65
2022/07/10 08:53:30;;;;;;;4.30;1.10;;;23.70;99.90;;;;;;5078435;28;20097;-65
2022/07/10 08:55:56;;;;;;;2.65;0.80;;;23.90;99.90;;;;;;5077522;28;20040;-65
2022/07/10 08:58:22;;;;;;;3.42;0.70;;;23.80;99.90;;;;;;5078232;28;20106;-66
2022/07/10 09:00:49;;;;;;;2.78;1.05;;;23.70;99.90;;;;;;5078390;28;20088;-65
2022/07/10 09:03:15;;;;;;;3.40;1.10;;;23.90;99.90;;;;;;5078269;28;20021;-66
2022/07/10 09:05:41;;;;;;;3.08;1.17;;;23.90;99.90;;;;;;5077743;28;20276;-66
2022/07/10 09:08:28;;;;;;;2.35;1.00;;;24.10;99.90;;;;;;5078432;28;20311;-68
2022/07/10 09:11:16;;;;;;;4.10;1.17;;;24.20;99.90;;;;;;5078240;28;20396;-66
2022/07/10 09:13:52;;;;;;;2.92;1.30;;;24.10;99.90;;;;;;5078104;28;20089;-67
2022/07/10 09:16:38;;;;;;;4.63;1.30;;;23.90;99.90;;;;;;5078433;28;20388;-67
2022/07/10 09:19:23;;;;;;;3.58;1.50;;;23.80;99.90;;;;;;5077956;28;20028;-67
2022/07/10 09:21:52;;;;;;;3.35;1.23;;;23.70;99.90;;;;;;5077267;28;20036;-69
2022/07/10 09:24:21;;;;;;;4.60;1.50;;;23.40;99.90;;;;;;5078074;28;20270;-67
2022/07/10 09:26:56;;;;;;;3.30;1.50;;;23.10;99.90;;;;;;5077058;28;20056;-66
2022/07/10 09:29:22;;;;;;;4.25;2.03;;;23.00;99.90;;;;;;5077120;28;20130;-67
2022/07/10 09:31:58;;;;;;;2.63;1.60;;;23.20;99.90;;;;;;5077826;28;20036;-66
2022/07/10 09:34:44;;;;;;;4.47;1.75;;;23.40;99.90;;;;;;5077721;28;20036;-66
2022/07/10 09:37:19;;;;;;;2.95;1.33;;;23.60;99.90;;;;;;5061512;28;20032;-66
2022/07/10 09:39:51;;;;;;;3.38;1.40;;;23.80;99.90;;;;;;5077592;28;20296;-68
2022/07/10 09:42:36;;;;;;;2.20;1.40;;;23.80;99.90;;;;;;5077527;28;20050;-69
2022/07/10 09:45:17;;;;;;;2.60;1.45;;;23.80;99.90;;;;;;5077623;28;20102;-67
2022/07/10 09:47:49;;;;;;;2.80;1.38;;;23.80;99.90;;;;;;5077808;28;20028;-69
2022/07/10 09:50:34;;;;;;;6.18;1.63;;;23.70;99.90;;;;;;5076888;28;20044;-67
2022/07/10 09:53:09;;;;;;;2.67;1.33;;;23.80;99.90;;;;;;5076802;28;20412;-68
2022/07/10 09:55:36;;;;;;;2.10;1.10;;;24.00;99.90;;;;;;5077163;28;20052;-67
2022/07/10 09:58:07;;;;;;;2.28;1.17;;;24.20;99.90;;;;;;5077258;28;20111;-70
2022/07/10 10:00:40;;;;;;;3.92;1.23;;;24.50;99.90;;;;;;5077330;28;20033;-68
2022/07/10 10:03:11;;;;;;;3.28;1.25;;;24.60;99.90;;;;;;5077249;28;20021;-66
2022/07/10 10:05:45;;;;;;;2.75;1.27;;;24.90;99.90;;;;;;5077335;28;20033;-67
2022/07/10 10:08:16;;;;;;;3.88;1.40;;;25.20;99.90;;;;;;5077263;28;20025;-67
2022/07/10 10:10:51;;;;;;;2.85;1.20;;;25.40;99.90;;;;;;5077249;28;20308;-66
2022/07/10 10:13:22;;;;;;;3.80;1.40;;;25.30;99.90;;;;;;5077043;28;20036;-66
2022/07/10 10:15:50;;;;;;;3.65;1.10;;;25.30;99.90;;;;;;5059595;28;20041;-66
2022/07/10 10:18:20;;;;;;;2.53;1.00;;;25.40;99.90;;;;;;5076559;28;20124;-67
2022/07/10 10:20:47;;;;;;;2.65;1.20;;;25.60;99.90;;;;;;5077176;28;20070;-67
2022/07/10 10:23:20;;;;;;;4.43;1.20;;;25.60;99.90;;;;;;5076448;28;20427;-66
2022/07/10 10:25:51;;;;;;;2.20;1.13;;;25.90;99.90;;;;;;5076222;28;20048;-66
2022/07/10 10:28:23;;;;;;;3.53;1.23;;;26.00;99.90;;;;;;5075750;28;20024;-65
2022/07/10 10:30:54;;;;;;;3.63;1.20;;;25.80;99.90;;;;;;5076329;28;20327;-63
2022/07/10 10:33:32;;;;;;;4.30;1.30;;;26.00;99.90;;;;;;5076902;28;20306;-66
2022/07/10 10:36:02;;;;;;;2.92;1.40;;;26.20;99.90;;;;;;5076841;28;20025;-66
2022/07/10 10:38:51;;;;;;;4.32;1.15;;;26.50;99.90;;;;;;5076956;28;20041;-66
2022/07/10 10:41:27;;;;;;;3.33;1.27;;;26.70;99.90;;;;;;5076855;28;20027;-66
2022/07/10 10:44:08;;;;;;;3.38;1.33;;;26.50;99.90;;;;;;5076741;28;20021;-67
2022/07/10 10:46:49;;;;;;;4.22;1.08;;;26.50;99.90;;;;;;5076680;28;20039;-66
2022/07/10 10:49:16;;;;;;;4.50;1.20;;;26.80;99.90;;;;;;5076741;28;20036;-66
2022/07/10 10:52:03;;;;;;;2.05;1.10;;;27.00;99.90;;;;;;5077289;28;20025;-65
2022/07/10 10:54:31;;;;;;;2.67;1.23;;;26.90;99.90;;;;;;5076650;28;20032;-66
2022/07/10 10:57:14;;;;;;;2.63;1.30;;;26.90;99.90;;;;;;5076475;28;20052;-67
2022/07/10 10:59:53;;;;;;;4.68;1.30;;;26.80;99.90;;;;;;5076614;28;20175;-71
2022/07/10 11:02:35;;;;;;;3.22;1.10;;;26.80;99.90;;;;;;5076955;28;20258;-67
2022/07/10 11:05:19;;;;;;;4.50;1.25;;;26.80;99.90;;;;;;5076699;28;20037;-65
2022/07/10 11:07:55;;;;;;;2.95;1.00;;;27.20;99.90;;;;;;5076502;28;20288;-68
2022/07/10 11:10:38;;;;;;;1.77;1.00;;;27.60;99.90;;;;;;5076433;28;20044;-64
2022/07/10 11:13:08;;;;;;;1.35;0.80;;;27.30;99.90;;;;;;5076504;28;20059;-64
2022/07/10 11:15:51;;;;;;;3.78;0.85;;;27.70;99.90;;;;;;5076471;28;20024;-65
2022/07/10 11:18:19;;;;;;;4.05;1.00;;;28.00;99.90;;;;;;5075973;28;20340;-66
2022/07/10 11:20:48;;;;;;;2.08;0.88;;;28.30;99.90;;;;;;5076456;28;20037;-65
2022/07/10 11:23:36;;;;;;;3.40;0.98;;;28.40;99.90;;;;;;5075702;28;20123;-65
2022/07/10 11:26:12;;;;;;;2.65;1.30;;;28.40;99.90;;;;;;5075705;28;20056;-65
2022/07/10 11:28:44;;;;;;;2.05;0.80;;;28.90;99.90;;;;;;5075680;28;20103;-67
2022/07/10 11:31:10;;;;;;;4.57;1.00;;;29.10;99.90;;;;;;5076466;28;20040;-66
2022/07/10 11:33:55;;;;;;;2.17;0.93;;;29.30;99.90;;;;;;5076494;28;20052;-66
2022/07/10 11:36:28;;;;;;;1.70;0.80;;;29.80;99.90;;;;;;5076592;28;20037;-66
2022/07/10 11:38:59;;;;;;;2.25;1.00;;;30.00;99.90;;;;;;5075744;28;20059;-65
2022/07/10 11:41:25;;;;;;;5.65;1.17;;;30.10;99.90;;;;;;5078584;28;20107;-65
2022/07/10 11:43:52;;;;;;;1.60;0.85;;;30.30;99.90;;;;;;5080245;28;20304;-67
2022/07/10 11:46:21;;;;;;;3.88;1.00;;;30.50;99.90;;;;;;5079900;28;20028;-64
2022/07/10 11:48:48;;;;;;;3.55;0.80;;;30.80;99.90;;;;;;5079687;28;20036;-68
2022/07/10 11:51:36;;;;;;;3.92;1.02;;;31.10;99.90;;;;;;5079736;28;20029;-69
2022/07/10 11:54:03;;;;;;;4.78;1.00;;;31.40;99.90;;;;;;5079717;28;20029;-65
2022/07/10 11:56:43;;;;;;;2.95;1.15;;;31.00;99.80;;;;;;5079675;28;20292;-68
2022/07/10 11:59:10;;;;;;;3.95;1.23;;;31.00;99.10;;;;;;5079485;28;20037;-65
2022/07/10 12:01:48;;;;;;;3.10;1.20;;;30.70;99.50;;;;;;5079600;28;20411;-67
2022/07/10 12:04:19;;;;;;;2.70;0.80;;;31.00;98.90;;;;;;5079456;28;20032;-67
2022/07/10 12:06:46;;;;;;;2.38;0.80;;;30.90;99.70;;;;;;5078758;28;20093;-68
2022/07/10 12:09:15;;;;;;;2.53;0.85;;;30.60;99.10;;;;;;5079398;28;20090;-66
2022/07/10 12:11:42;;;;;;;2.08;0.75;;;30.50;99.00;;;;;;5079681;28;20289;-66
2022/07/10 12:14:20;;;;;;;2.70;0.98;;;30.40;98.80;;;;;;5079276;28;20044;-65
2022/07/10 12:16:48;;;;;;;2.30;1.10;;;30.20;99.30;;;;;;5079852;28;20021;-66
2022/07/10 12:19:17;;;;;;;3.50;0.90;;;29.70;99.00;;;;;;5079166;28;20101;-66
2022/07/10 12:21:44;;;;;;;3.35;1.02;;;29.70;99.90;;;;;;5079138;28;20029;-66
2022/07/10 12:24:12;;;;;;;2.35;1.00;;;30.00;99.30;;;;;;5079102;28;20117;-67
2022/07/10 12:26:39;;;;;;;2.58;1.20;;;29.90;98.30;;;;;;5078564;28;20090;-67
2022/07/10 12:29:05;;;;;;;2.67;0.90;;;29.70;98.20;;;;;;5079103;28;20040;-66
2022/07/10 12:31:33;;;;;;;1.88;0.85;;;29.60;98.50;;;;;;5078365;28;20036;-66
2022/07/10 12:34:04;;;;;;;3.08;1.10;;;29.80;98.90;;;;;;5078323;28;20410;-67
2022/07/10 12:36:53;;;;;;;3.17;0.90;;;30.40;98.40;;;;;;5079554;28;20086;-68
2022/07/10 12:39:22;;;;;;;3.40;1.40;;;30.90;97.30;;;;;;5078763;28;20090;-66
2022/07/10 12:41:58;;;;;;;3.03;0.90;;;31.10;95.90;;;;;;5078933;28;20488;-65
2022/07/10 12:44:37;;;;;;;3.40;1.05;;;31.50;95.50;;;;;;5078714;28;20032;-65
2022/07/10 12:47:08;;;;;;;1.05;0.90;;;31.60;95.20;;;;;;5079081;28;20404;-65
2022/07/10 12:50:04;;;;;;;2.90;1.27;;;31.60;94.50;;;;;;5078733;28;20035;-67
2022/07/10 12:52:35;;;;;;;3.70;1.20;;;31.50;94.10;;;;;;5077661;28;20051;-66
2022/07/10 12:55:13;;;;;;;2.03;0.88;;;31.10;94.80;;;;;;5078425;28;20491;-65
2022/07/10 12:57:59;;;;;;;4.00;1.20;;;31.10;94.00;;;;;;5078522;28;20037;-64
2022/07/10 13:00:30;;;;;;;3.00;1.00;;;31.20;93.60;;;;;;5078662;28;20032;-63
2022/07/10 13:03:01;;;;;;;3.10;1.00;;;31.30;93.60;;;;;;5078482;28;20024;-64